createdAt,value
2022-11-04T00:00:12.664Z,16.88
2022-11-04T00:01:46.734Z,19.33
2022-11-04T00:03:18.844Z,17.23
2022-11-04T00:04:50.847Z,16.55
2022-11-04T00:06:23.157Z,15.63
2022-11-04T00:08:13.706Z,14.27
2022-11-04T00:09:45.712Z,16.95
2022-11-04T00:13:30.614Z,17.50
2022-11-04T00:15:24.142Z,19.83
2022-11-04T00:17:15.397Z,17.52
2022-11-04T00:18:47.503Z,16.63
2022-11-04T00:20:37.998Z,16.15
2022-11-04T00:22:28.746Z,16.63
2022-11-04T00:24:19.484Z,13.80
2022-11-04T00:26:10.136Z,15.95
2022-11-04T00:28:00.841Z,15.38
2022-11-04T00:29:32.817Z,15.38
2022-11-04T00:31:25.888Z,15.25
2022-11-04T00:33:16.617Z,16.10
2022-11-04T00:34:48.713Z,14.95
2022-11-04T00:36:21.992Z,17.60
2022-11-04T00:37:53.977Z,13.35
2022-11-04T00:39:26.093Z,15.70
2022-11-04T00:40:58.199Z,16.52
2022-11-04T00:42:30.237Z,15.93
2022-11-04T00:44:05.882Z,13.75
2022-11-04T00:45:37.983Z,13.68
2022-11-04T00:47:10.025Z,12.88
2022-11-04T00:48:41.959Z,16.00
2022-11-04T00:50:13.951Z,15.60
2022-11-04T00:51:45.886Z,18.73
2022-11-04T00:53:17.857Z,14.93
2022-11-04T00:54:49.920Z,13.13
2022-11-04T00:56:21.954Z,13.60
2022-11-04T00:57:54.291Z,14.80
2022-11-04T00:59:26.340Z,14.40
2022-11-04T01:00:58.341Z,13.40
2022-11-04T01:02:30.505Z,15.02
2022-11-04T01:04:03.037Z,13.05
2022-11-04T01:05:38.190Z,14.98
2022-11-04T01:07:10.149Z,14.15
2022-11-04T01:08:42.167Z,16.88
2022-11-04T01:10:14.247Z,12.95
2022-11-04T01:11:46.372Z,17.27
2022-11-04T01:13:18.480Z,17.63
2022-11-04T01:14:50.491Z,15.57
2022-11-04T01:16:23.074Z,17.20
2022-11-04T01:17:55.127Z,15.27
2022-11-04T01:19:30.340Z,14.68
2022-11-04T01:21:03.636Z,16.42
2022-11-04T01:22:35.668Z,23.52
2022-11-04T01:24:07.753Z,15.23
2022-11-04T01:25:41.529Z,14.43
2022-11-04T01:27:13.516Z,15.40
2022-11-04T01:28:45.899Z,13.38
2022-11-04T01:30:18.085Z,14.68
2022-11-04T01:31:50.067Z,14.88
2022-11-04T01:33:22.090Z,15.52
2022-11-04T01:34:54.072Z,14.32
2022-11-04T01:36:26.995Z,15.52
2022-11-04T01:37:59.466Z,16.63
2022-11-04T01:39:31.466Z,13.98
2022-11-04T01:41:03.890Z,15.23
2022-11-04T01:42:35.891Z,14.60
2022-11-04T01:44:41.970Z,15.60
2022-11-04T01:46:19.674Z,14.77
2022-11-04T01:48:04.896Z,14.70
2022-11-04T01:49:43.354Z,14.68
2022-11-04T01:51:16.363Z,15.60
2022-11-04T01:52:52.622Z,14.33
2022-11-04T01:54:25.304Z,13.02
2022-11-04T01:55:59.226Z,15.45
2022-11-04T01:57:35.246Z,16.65
2022-11-04T01:59:11.660Z,14.45
2022-11-04T02:00:44.301Z,17.00
2022-11-04T02:02:16.469Z,15.02
2022-11-04T02:03:54.898Z,15.73
2022-11-04T02:05:28.238Z,14.02
2022-11-04T02:07:01.663Z,14.68
2022-11-04T02:08:34.726Z,14.60
2022-11-04T02:10:08.073Z,14.48
2022-11-04T02:11:58.404Z,16.85
2022-11-04T02:13:34.630Z,13.63
2022-11-04T02:15:07.086Z,12.38
2022-11-04T02:16:45.021Z,16.27
2022-11-04T02:18:25.214Z,16.30
2022-11-04T02:20:23.825Z,14.40
2022-11-04T02:22:19.166Z,15.05
2022-11-04T02:25:35.147Z,14.27
2022-11-04T02:27:28.537Z,14.40
2022-11-04T02:29:15.283Z,16.10
2022-11-04T02:30:53.325Z,13.77
2022-11-04T02:32:34.205Z,16.95
2022-11-04T02:34:18.728Z,14.57
2022-11-04T02:36:02.779Z,13.90
2022-11-04T02:39:28.528Z,14.15
2022-11-04T02:41:28.073Z,14.68
2022-11-04T02:43:42.536Z,13.30
2022-11-04T02:45:20.565Z,16.42
2022-11-04T02:47:08.589Z,13.32
2022-11-04T02:48:47.539Z,13.80
2022-11-04T02:50:37.104Z,13.88
2022-11-04T02:52:10.913Z,13.98
2022-11-04T02:53:48.876Z,15.50
2022-11-04T02:55:26.260Z,11.88
2022-11-04T02:57:00.225Z,14.38
2022-11-04T02:58:39.217Z,13.38
2022-11-04T03:00:13.750Z,14.77
2022-11-04T03:01:47.467Z,15.23
2022-11-04T03:03:29.120Z,13.30
2022-11-04T03:05:03.160Z,14.85
2022-11-04T03:06:35.813Z,14.30
2022-11-04T03:08:15.012Z,12.57
2022-11-04T03:09:50.183Z,16.27
2022-11-04T03:11:25.426Z,12.95
2022-11-04T03:13:01.943Z,13.35
2022-11-04T03:14:40.650Z,13.50
2022-11-04T03:16:17.566Z,13.45
2022-11-04T03:18:13.388Z,12.85
2022-11-04T03:19:53.805Z,12.93
2022-11-04T03:21:26.940Z,11.75
2022-11-04T03:23:00.568Z,12.07
2022-11-04T03:24:32.913Z,13.68
2022-11-04T03:26:19.361Z,14.55
2022-11-04T03:28:02.775Z,13.32
2022-11-04T03:29:43.089Z,14.13
2022-11-04T03:31:28.595Z,14.93
2022-11-04T03:33:00.619Z,14.65
2022-11-04T03:34:33.279Z,13.32
2022-11-04T03:36:06.406Z,14.13
2022-11-04T03:37:38.588Z,14.55
2022-11-04T03:39:10.850Z,13.73
2022-11-04T03:40:43.034Z,16.60
2022-11-04T03:42:21.089Z,16.25
2022-11-04T03:43:53.224Z,11.52
2022-11-04T03:45:26.060Z,15.68
2022-11-04T03:46:58.583Z,13.27
2022-11-04T03:48:30.704Z,14.55
2022-11-04T03:50:14.197Z,12.98
2022-11-04T03:51:46.177Z,15.15
2022-11-04T03:53:22.610Z,13.73
2022-11-04T03:54:54.745Z,12.75
2022-11-04T03:56:34.148Z,11.15
2022-11-04T03:58:16.633Z,13.93
2022-11-04T03:59:58.792Z,14.38
2022-11-04T04:02:00.976Z,12.75
2022-11-04T04:03:43.579Z,12.15
2022-11-04T04:05:48.147Z,13.50
2022-11-04T04:07:44.739Z,11.80
2022-11-04T04:09:20.829Z,12.13
2022-11-04T04:11:27.096Z,11.25
2022-11-04T04:13:01.922Z,14.65
2022-11-04T04:14:45.922Z,14.27
2022-11-04T04:16:37.403Z,12.48
2022-11-04T04:18:12.732Z,11.13
2022-11-04T04:19:48.744Z,13.02
2022-11-04T04:22:57.383Z,11.27
2022-11-04T04:24:52.888Z,11.88
2022-11-04T04:26:44.028Z,15.43
2022-11-04T04:28:17.861Z,13.13
2022-11-04T04:29:51.461Z,11.93
2022-11-04T04:31:42.600Z,12.25
2022-11-04T04:33:16.727Z,11.55
2022-11-04T04:34:48.796Z,12.05
2022-11-04T04:36:21.013Z,13.52
2022-11-04T04:37:55.162Z,10.70
2022-11-04T04:39:51.980Z,11.52
2022-11-04T04:41:47.437Z,16.08
2022-11-04T04:43:38.309Z,11.23
2022-11-04T04:45:11.311Z,14.80
2022-11-04T04:46:45.069Z,14.18
2022-11-04T04:48:17.462Z,10.50
2022-11-04T04:49:53.637Z,14.25
2022-11-04T04:51:25.743Z,10.77
2022-11-04T04:52:58.896Z,11.60
2022-11-04T04:54:30.946Z,11.43
2022-11-04T04:56:03.307Z,13.18
2022-11-04T04:57:35.541Z,14.00
2022-11-04T04:59:07.610Z,11.55
2022-11-04T05:00:39.821Z,13.45
2022-11-04T05:02:12.321Z,11.23
2022-11-04T05:03:47.455Z,12.13
2022-11-04T05:05:19.791Z,14.35
2022-11-04T05:06:51.990Z,12.05
2022-11-04T05:08:24.006Z,12.55
2022-11-04T05:09:56.253Z,14.20
2022-11-04T05:11:28.480Z,12.80
2022-11-04T05:13:19.935Z,11.10
2022-11-04T05:14:52.305Z,11.32
2022-11-04T05:16:24.400Z,15.10
2022-11-04T05:17:58.363Z,11.93
2022-11-04T05:19:30.372Z,12.77
2022-11-04T05:21:11.854Z,11.73
2022-11-04T05:22:44.260Z,13.10
2022-11-04T05:24:16.417Z,12.55
2022-11-04T05:25:48.628Z,14.48
2022-11-04T05:27:23.616Z,16.13
2022-11-04T05:28:55.648Z,19.33
2022-11-04T05:30:27.929Z,21.63
2022-11-04T05:32:00.112Z,21.20
2022-11-04T05:33:32.539Z,19.80
2022-11-04T05:35:05.043Z,17.77
2022-11-04T05:36:37.560Z,19.48
2022-11-04T05:38:10.009Z,14.90
2022-11-04T05:39:42.224Z,16.85
2022-11-04T05:41:26.870Z,20.48
2022-11-04T05:43:00.345Z,15.35
2022-11-04T05:46:07.728Z,18.60
2022-11-04T05:47:40.036Z,15.93
2022-11-04T05:49:12.613Z,12.15
2022-11-04T05:50:44.996Z,19.67
2022-11-04T05:52:17.336Z,19.25
2022-11-04T05:53:49.682Z,17.88
2022-11-04T05:55:21.743Z,14.45
2022-11-04T05:56:54.161Z,17.20
2022-11-04T05:58:26.304Z,18.85
2022-11-04T05:59:58.779Z,18.92
2022-11-04T06:01:39.144Z,14.40
2022-11-04T06:03:13.757Z,15.10
2022-11-04T06:04:48.388Z,14.82
2022-11-04T06:06:22.184Z,20.23
2022-11-04T06:07:56.383Z,19.15
2022-11-04T06:09:40.396Z,15.32
2022-11-04T06:12:46.948Z,18.77
2022-11-04T06:14:19.124Z,17.55
2022-11-04T06:15:51.230Z,16.00
2022-11-04T06:17:23.593Z,16.85
2022-11-04T06:18:56.882Z,15.95
2022-11-04T06:20:31.684Z,22.48
2022-11-04T06:22:04.408Z,19.85
2022-11-04T06:23:36.466Z,18.52
2022-11-04T06:26:41.383Z,16.67
2022-11-04T06:28:13.522Z,18.70
2022-11-04T06:29:45.734Z,18.08
2022-11-04T06:31:18.513Z,18.65
2022-11-04T06:32:50.586Z,17.27
2022-11-04T06:34:23.012Z,18.02
2022-11-04T06:35:58.900Z,17.38
2022-11-04T06:37:31.104Z,18.83
2022-11-04T06:39:05.753Z,17.15
2022-11-04T06:40:38.074Z,18.02
2022-11-04T06:42:10.575Z,20.00
2022-11-04T06:43:43.092Z,18.98
2022-11-04T06:45:15.442Z,17.67
2022-11-04T06:46:48.058Z,16.15
2022-11-04T06:48:20.195Z,16.27
2022-11-04T06:49:52.274Z,18.48
2022-11-04T06:51:25.243Z,18.15
2022-11-04T06:52:57.428Z,15.90
2022-11-04T06:54:29.990Z,15.38
2022-11-04T06:56:04.352Z,17.33
2022-11-04T06:57:36.650Z,16.92
2022-11-04T06:59:09.349Z,18.80
2022-11-04T07:00:41.929Z,16.35
2022-11-04T07:02:14.196Z,18.17
2022-11-04T07:03:50.890Z,17.38
2022-11-04T07:05:23.296Z,19.67
2022-11-04T07:06:55.489Z,16.23
2022-11-04T07:08:29.954Z,18.08
2022-11-04T07:10:02.215Z,16.58
2022-11-04T07:11:34.442Z,17.20
2022-11-04T07:13:06.998Z,20.95
2022-11-04T07:14:39.483Z,19.57
2022-11-04T07:16:11.930Z,16.60
2022-11-04T07:17:45.235Z,19.25
2022-11-04T07:19:17.522Z,19.58
2022-11-04T07:20:49.715Z,16.60
2022-11-04T07:22:21.815Z,21.13
2022-11-04T07:25:26.588Z,17.73
2022-11-04T07:26:58.771Z,19.33
2022-11-04T07:28:31.323Z,17.88
2022-11-04T07:30:03.814Z,16.60
2022-11-04T07:31:36.108Z,20.00
2022-11-04T07:33:08.809Z,17.23
2022-11-04T07:34:41.136Z,19.55
2022-11-04T07:36:14.365Z,18.00
2022-11-04T07:37:46.664Z,17.50
2022-11-04T07:39:19.295Z,17.83
2022-11-04T07:40:51.282Z,18.70
2022-11-04T07:42:23.624Z,16.13
2022-11-04T07:43:55.634Z,14.90
2022-11-04T07:45:27.938Z,15.15
2022-11-04T07:47:00.166Z,16.90
2022-11-04T07:48:32.599Z,19.13
2022-11-04T07:50:09.779Z,17.00
2022-11-04T07:51:43.328Z,17.60
2022-11-04T07:53:15.727Z,18.38
2022-11-04T07:54:47.978Z,17.95
2022-11-04T07:56:19.950Z,17.25
2022-11-04T07:57:52.084Z,16.08
2022-11-04T07:59:24.438Z,16.70
2022-11-04T08:01:01.512Z,15.23
2022-11-04T08:02:35.356Z,13.88
2022-11-04T08:04:08.389Z,14.50
2022-11-04T08:05:40.661Z,15.60
2022-11-04T08:07:12.871Z,17.60
2022-11-04T08:08:45.275Z,15.02
2022-11-04T08:10:17.711Z,17.95
2022-11-04T08:11:50.238Z,14.05
2022-11-04T08:13:22.825Z,16.97
2022-11-04T08:14:55.037Z,15.05
2022-11-04T08:16:33.070Z,15.50
2022-11-04T08:18:06.849Z,15.85
2022-11-04T08:19:39.198Z,16.48
2022-11-04T08:21:11.874Z,14.25
2022-11-04T08:22:44.284Z,17.38
2022-11-04T08:24:17.222Z,19.60
2022-11-04T08:25:49.496Z,16.90
2022-11-04T08:27:21.560Z,17.00
2022-11-04T08:28:53.587Z,19.48
2022-11-04T08:30:25.944Z,136.50
2022-11-04T08:31:58.267Z,97.53
2022-11-04T08:33:32.255Z,22.42
2022-11-04T08:35:05.048Z,17.40
2022-11-04T08:36:39.288Z,18.67
2022-11-04T08:38:11.524Z,20.80
2022-11-04T08:39:43.778Z,17.88
2022-11-04T08:41:20.013Z,19.95
2022-11-04T08:42:52.137Z,16.23
2022-11-04T08:44:24.367Z,16.60
2022-11-04T08:45:56.658Z,13.30
2022-11-04T08:47:28.691Z,14.85
2022-11-04T08:49:01.145Z,16.92
2022-11-04T08:50:34.822Z,20.80
2022-11-04T08:52:07.051Z,20.95
2022-11-04T08:53:39.188Z,17.33
2022-11-04T08:55:11.387Z,16.10
2022-11-04T08:56:43.456Z,18.10
2022-11-04T08:58:15.869Z,18.52
2022-11-04T08:59:47.926Z,15.60
2022-11-04T09:01:21.665Z,20.60
2022-11-04T09:02:55.960Z,18.77
2022-11-04T09:04:28.106Z,18.48
2022-11-04T09:06:00.359Z,18.35
2022-11-04T09:07:32.819Z,19.38
2022-11-04T09:09:06.929Z,18.30
2022-11-04T09:10:45.794Z,18.58
2022-11-04T09:12:18.058Z,19.92
2022-11-04T09:13:51.019Z,20.80
2022-11-04T09:15:23.427Z,18.33
2022-11-04T09:16:56.426Z,19.30
2022-11-04T09:18:28.612Z,21.42
2022-11-04T09:20:00.798Z,20.88
2022-11-04T09:21:33.240Z,20.77
2022-11-04T09:24:37.253Z,25.02
2022-11-04T09:26:12.686Z,18.58
2022-11-04T09:27:44.759Z,30.55
2022-11-04T09:29:17.051Z,30.27
2022-11-04T09:30:49.229Z,18.25
2022-11-04T09:32:22.067Z,20.75
2022-11-04T09:33:57.622Z,18.73
2022-11-04T09:35:30.357Z,22.98
2022-11-04T09:37:02.600Z,16.15
2022-11-04T09:38:34.766Z,21.60
2022-11-04T09:40:07.593Z,20.17
2022-11-04T09:41:53.810Z,22.20
2022-11-04T09:43:47.492Z,20.75
2022-11-04T09:45:28.421Z,20.10
2022-11-04T09:47:03.407Z,20.73
2022-11-04T09:48:48.125Z,20.40
2022-11-04T09:50:33.660Z,19.38
2022-11-04T09:52:14.739Z,21.02
2022-11-04T09:53:52.294Z,20.75
2022-11-04T09:55:29.015Z,19.63
2022-11-04T09:57:01.913Z,16.33
2022-11-04T09:58:37.357Z,18.27
2022-11-04T10:00:16.681Z,15.40
2022-11-04T10:02:14.350Z,13.85
2022-11-04T10:04:25.819Z,13.30
2022-11-04T10:06:25.502Z,18.50
2022-11-04T10:08:04.063Z,24.48
2022-11-04T10:10:06.251Z,20.95
2022-11-04T10:11:50.605Z,16.90
2022-11-04T10:13:25.421Z,15.25
2022-11-04T10:15:32.855Z,18.20
2022-11-04T10:17:27.275Z,19.45
2022-11-04T10:19:23.495Z,17.13
2022-11-04T10:21:11.035Z,15.20
2022-11-04T10:22:59.650Z,19.02
2022-11-04T10:24:42.954Z,18.65
2022-11-04T10:27:00.358Z,19.27
2022-11-04T10:28:43.405Z,15.73
2022-11-04T10:30:18.982Z,26.95
2022-11-04T10:31:52.649Z,24.38
2022-11-04T10:33:35.584Z,17.23
2022-11-04T10:35:32.489Z,24.93
2022-11-04T10:37:05.224Z,14.95
2022-11-04T10:38:55.843Z,19.73
2022-11-04T10:40:32.610Z,19.98
2022-11-04T10:42:06.098Z,16.30
2022-11-04T10:43:39.738Z,19.92
2022-11-04T10:45:13.700Z,14.70
2022-11-04T10:47:10.040Z,20.63
2022-11-04T10:48:49.948Z,17.60
2022-11-04T10:50:45.068Z,14.20
2022-11-04T10:53:55.506Z,16.23
2022-11-04T10:56:03.739Z,15.30
2022-11-04T10:57:36.076Z,17.00
2022-11-04T10:59:20.508Z,17.45
2022-11-04T11:00:53.447Z,19.92
2022-11-04T11:02:38.056Z,24.73
2022-11-04T11:04:29.029Z,24.17
2022-11-04T11:06:30.188Z,15.60
2022-11-04T11:08:02.393Z,18.08
2022-11-04T11:09:37.017Z,17.75
2022-11-04T11:11:09.866Z,16.60
2022-11-04T11:12:52.372Z,15.85
2022-11-04T11:14:33.194Z,14.43
2022-11-04T11:16:09.620Z,21.52
2022-11-04T11:17:42.971Z,17.50
2022-11-04T11:21:11.780Z,15.60
2022-11-04T11:22:45.392Z,12.30
2022-11-04T11:24:23.975Z,13.77
2022-11-04T11:25:56.258Z,18.83
2022-11-04T11:27:28.650Z,17.40
2022-11-04T11:29:02.738Z,14.43
2022-11-04T11:30:42.966Z,18.08
2022-11-04T11:32:36.288Z,20.85
2022-11-04T11:34:17.199Z,23.05
2022-11-04T11:36:16.515Z,14.45
2022-11-04T11:37:49.755Z,16.20
2022-11-04T11:39:28.388Z,14.90
2022-11-04T11:41:29.732Z,22.05
2022-11-04T11:43:02.753Z,17.52
2022-11-04T11:44:38.884Z,20.48
2022-11-04T11:46:12.262Z,17.83
2022-11-04T11:47:44.891Z,23.20
2022-11-04T11:49:25.496Z,22.33
2022-11-04T11:52:31.319Z,25.55
2022-11-04T11:54:14.452Z,21.20
2022-11-04T11:56:26.346Z,22.75
2022-11-04T12:02:18.103Z,27.70
2022-11-04T12:10:24.142Z,23.25
2022-11-04T12:12:18.615Z,21.90
2022-11-04T12:14:23.076Z,22.48
2022-11-04T12:16:16.164Z,22.90
2022-11-04T12:18:07.172Z,27.58
2022-11-04T12:21:49.369Z,26.33
2022-11-04T12:23:51.861Z,21.83
2022-11-04T12:25:38.883Z,26.05
2022-11-04T12:27:29.389Z,23.65
2022-11-04T12:29:28.011Z,24.88
2022-11-04T12:31:38.916Z,21.98
2022-11-04T12:33:36.898Z,26.10
2022-11-04T12:35:15.507Z,24.77
2022-11-04T12:36:50.518Z,25.83
2022-11-04T12:38:41.698Z,32.50
2022-11-04T12:40:29.324Z,29.20
2022-11-04T12:42:21.016Z,21.73
2022-11-04T12:44:22.676Z,28.10
2022-11-04T12:46:10.211Z,26.98
2022-11-04T12:47:44.780Z,24.85
2022-11-04T12:49:38.896Z,23.58
2022-11-04T12:51:28.588Z,24.58
2022-11-04T12:53:27.252Z,24.20
2022-11-04T12:55:23.726Z,24.08
2022-11-04T12:57:24.106Z,25.77
2022-11-04T12:59:05.784Z,21.65
2022-11-04T13:00:38.947Z,25.02
2022-11-04T13:55:21.999Z,20.50
2022-11-04T13:57:15.697Z,23.85
2022-11-04T13:58:55.745Z,20.88
2022-11-04T14:00:30.101Z,18.75
2022-11-04T14:02:21.262Z,22.50
2022-11-04T14:04:07.291Z,20.33
2022-11-04T14:05:42.516Z,27.80
2022-11-04T14:07:19.119Z,27.30
2022-11-04T14:09:25.602Z,29.95
2022-11-04T14:10:59.813Z,20.67
2022-11-04T14:12:33.562Z,21.60
2022-11-04T14:14:21.066Z,21.45
2022-11-04T14:16:18.273Z,21.80
2022-11-04T14:17:53.174Z,22.55
2022-11-04T14:19:48.146Z,23.63
2022-11-04T14:21:29.938Z,20.63
2022-11-04T14:23:06.160Z,21.83
2022-11-04T14:24:38.478Z,25.38
2022-11-04T14:26:13.463Z,22.33
2022-11-04T14:27:48.740Z,29.55
2022-11-04T14:29:25.862Z,27.58
2022-11-04T14:31:02.112Z,21.73
2022-11-04T14:32:41.218Z,22.05
2022-11-04T14:34:29.469Z,23.50
2022-11-04T14:36:23.086Z,22.30
2022-11-04T14:37:56.054Z,24.92
2022-11-04T14:39:31.905Z,22.67
2022-11-04T14:41:15.488Z,21.95
2022-11-04T14:42:56.003Z,20.73
2022-11-04T14:44:37.011Z,21.08
2022-11-04T14:46:09.263Z,23.30
2022-11-04T14:47:43.436Z,23.45
2022-11-04T14:49:44.436Z,22.38
2022-11-04T14:51:40.489Z,18.83
2022-11-04T14:54:58.432Z,34.15
2022-11-04T14:56:30.776Z,33.13
2022-11-04T14:58:25.273Z,36.30
2022-11-04T14:59:57.584Z,30.88
2022-11-04T15:01:35.054Z,24.35
2022-11-04T15:03:12.597Z,21.27
2022-11-04T15:04:59.866Z,18.83
2022-11-04T15:06:53.538Z,18.85
2022-11-04T15:08:35.960Z,29.95
2022-11-04T15:10:28.152Z,32.50
2022-11-04T15:12:28.892Z,37.67
2022-11-04T15:14:01.374Z,50.15
2022-11-04T15:15:39.771Z,46.67
2022-11-04T15:17:18.981Z,45.15
2022-11-04T15:18:52.932Z,53.58
2022-11-04T15:20:26.412Z,51.05
2022-11-04T15:22:00.234Z,54.47
2022-11-04T15:23:36.588Z,45.63
2022-11-04T15:25:12.186Z,39.13
2022-11-04T15:26:50.591Z,30.20
2022-11-04T15:28:35.892Z,26.52
2022-11-04T15:30:23.329Z,28.02
2022-11-04T15:32:04.015Z,32.22
2022-11-04T15:33:41.912Z,27.33
2022-11-04T15:35:14.201Z,29.55
2022-11-04T15:36:46.744Z,34.22
2022-11-04T15:38:22.258Z,36.75
2022-11-04T15:39:58.593Z,29.10
2022-11-04T15:41:50.731Z,23.75
2022-11-04T15:43:22.936Z,29.48
2022-11-04T15:44:56.415Z,31.17
2022-11-04T15:46:29.821Z,33.00
2022-11-04T15:49:53.732Z,27.05
2022-11-04T15:52:58.456Z,28.38
2022-11-04T15:54:34.471Z,27.83
2022-11-04T15:56:07.527Z,24.73
2022-11-04T15:57:40.417Z,25.35
2022-11-04T15:59:19.335Z,35.03
2022-11-04T16:00:56.318Z,25.50
2022-11-04T16:02:33.611Z,29.98
2022-11-04T16:04:06.588Z,34.05
2022-11-04T16:05:40.206Z,31.20
2022-11-04T16:07:12.608Z,25.30
2022-11-04T16:09:01.447Z,27.58
2022-11-04T16:10:35.515Z,30.35
2022-11-04T16:12:16.266Z,34.30
2022-11-04T16:13:48.522Z,34.25
2022-11-04T16:15:41.553Z,32.35
2022-11-04T16:17:13.696Z,28.35
2022-11-04T16:18:52.293Z,24.52
2022-11-04T16:20:24.859Z,26.10
2022-11-04T16:22:09.686Z,25.40
2022-11-04T16:23:47.926Z,24.65
2022-11-04T16:25:23.901Z,27.63
2022-11-04T16:26:57.245Z,30.10
2022-11-04T16:30:17.391Z,31.17
2022-11-04T16:32:28.318Z,28.30
2022-11-04T16:34:00.850Z,21.13
2022-11-04T16:35:36.411Z,22.60
2022-11-04T16:37:09.177Z,24.00
2022-11-04T16:38:41.462Z,23.98
2022-11-04T16:40:15.064Z,26.67
2022-11-04T16:41:47.833Z,23.40
2022-11-04T16:43:21.405Z,30.30
2022-11-04T16:45:02.222Z,28.27
2022-11-04T16:46:34.775Z,26.52
2022-11-04T16:48:07.768Z,20.23
2022-11-04T16:49:40.103Z,21.80
2022-11-04T16:51:21.091Z,22.27
2022-11-04T16:52:54.221Z,24.55
2022-11-04T16:54:27.886Z,22.30
2022-11-04T16:56:00.776Z,23.00
2022-11-04T16:57:33.095Z,22.42
2022-11-04T16:59:08.023Z,23.00
2022-11-04T17:00:40.216Z,22.05
2022-11-04T17:02:23.607Z,21.48
2022-11-04T17:03:55.992Z,31.10
2022-11-04T17:05:28.463Z,24.45
2022-11-04T17:07:00.813Z,20.08
2022-11-04T17:08:33.303Z,23.05
2022-11-04T17:10:07.235Z,25.13
2022-11-04T17:11:39.407Z,23.33
2022-11-04T17:13:12.235Z,20.98
2022-11-04T17:14:44.648Z,22.58
2022-11-04T17:16:16.862Z,20.75
2022-11-04T17:17:49.175Z,22.02
2022-11-04T17:19:21.440Z,21.00
2022-11-04T17:20:55.903Z,29.15
2022-11-04T17:22:28.193Z,24.40
2022-11-04T17:24:00.522Z,22.63
2022-11-04T17:25:32.773Z,22.65
2022-11-04T17:27:05.333Z,20.27
2022-11-04T17:28:38.889Z,22.80
2022-11-04T17:30:13.403Z,22.38
2022-11-04T17:31:45.676Z,25.35
2022-11-04T17:33:19.282Z,24.15
2022-11-04T17:34:51.636Z,21.38
2022-11-04T17:36:24.550Z,21.15
2022-11-04T17:37:56.623Z,22.30
2022-11-04T17:39:28.689Z,24.90
2022-11-04T17:41:19.385Z,24.23
2022-11-04T17:43:12.351Z,23.25
2022-11-04T17:44:44.886Z,26.48
2022-11-04T17:46:38.619Z,22.50
2022-11-04T17:48:11.626Z,23.98
2022-11-04T17:49:43.964Z,22.65
2022-11-04T17:51:16.189Z,22.35
2022-11-04T17:52:49.387Z,25.83
2022-11-04T17:55:54.604Z,24.25
2022-11-04T17:57:26.862Z,26.98
2022-11-04T17:59:01.838Z,27.15
2022-11-04T18:00:34.145Z,25.45
2022-11-04T18:02:06.656Z,25.02
2022-11-04T18:03:39.060Z,23.17
2022-11-04T18:05:11.495Z,22.25
2022-11-04T18:06:45.013Z,20.65
2022-11-04T18:08:17.429Z,25.70
2022-11-04T18:09:49.950Z,21.70
2022-11-04T18:11:42.442Z,25.37
2022-11-04T18:13:14.534Z,25.85
2022-11-04T18:14:50.079Z,24.48
2022-11-04T18:16:22.207Z,23.50
2022-11-04T18:17:54.312Z,25.25
2022-11-04T18:19:27.404Z,20.70
2022-11-04T18:21:04.662Z,23.02
2022-11-04T18:22:37.176Z,22.00
2022-11-04T18:24:10.225Z,23.00
2022-11-04T18:25:46.766Z,26.95
2022-11-04T18:27:22.928Z,18.83
2022-11-04T18:28:55.347Z,19.45
2022-11-04T18:30:27.551Z,22.63
2022-11-04T18:31:59.814Z,20.20
2022-11-04T18:33:32.102Z,37.70
2022-11-04T18:35:04.615Z,21.95
2022-11-04T18:38:16.055Z,24.77
2022-11-04T18:39:48.569Z,20.35
2022-11-04T18:41:21.056Z,23.05
2022-11-04T18:42:53.508Z,21.70
2022-11-04T18:44:25.671Z,20.48
2022-11-04T18:45:57.951Z,22.15
2022-11-04T18:47:30.372Z,24.90
2022-11-04T18:49:02.532Z,22.45
2022-11-04T18:50:34.881Z,26.38
2022-11-04T18:52:07.226Z,29.35
2022-11-04T18:53:39.825Z,28.98
2022-11-04T18:55:11.989Z,22.80
2022-11-04T18:56:45.039Z,31.65
2022-11-04T18:58:17.314Z,29.42
2022-11-04T18:59:49.828Z,27.48
2022-11-04T19:01:27.491Z,29.87
2022-11-04T19:02:59.901Z,40.38
2022-11-04T19:04:32.271Z,26.98
2022-11-04T19:06:08.574Z,36.55
2022-11-04T19:07:42.359Z,34.03
2022-11-04T19:09:45.568Z,31.70
2022-11-04T19:11:20.529Z,27.17
2022-11-04T19:13:10.952Z,28.25
2022-11-04T19:14:43.134Z,23.98
2022-11-04T19:16:15.379Z,28.05
2022-11-04T19:17:48.022Z,26.38
2022-11-04T19:19:20.379Z,28.05
2022-11-04T19:20:52.622Z,26.40
2022-11-04T19:22:24.805Z,24.15
2022-11-04T19:24:00.705Z,23.85
2022-11-04T19:25:33.106Z,21.00
2022-11-04T19:27:05.777Z,23.48
2022-11-04T19:28:48.041Z,21.15
2022-11-04T19:30:20.947Z,22.55
2022-11-04T19:31:53.479Z,23.98
2022-11-04T19:33:25.676Z,21.60
2022-11-04T19:34:57.815Z,22.92
2022-11-04T19:38:02.801Z,25.08
2022-11-04T19:39:35.026Z,22.30
2022-11-04T19:41:34.433Z,21.80
2022-11-04T19:43:12.430Z,20.15
2022-11-04T19:44:44.726Z,23.40
2022-11-04T19:46:16.900Z,26.60
2022-11-04T19:47:49.133Z,25.73
2022-11-04T19:49:21.418Z,21.92
2022-11-04T19:50:53.764Z,25.30
2022-11-04T19:52:26.091Z,31.33
2022-11-04T19:53:58.226Z,135.10
2022-11-04T19:55:31.544Z,56.45
2022-11-04T19:57:03.903Z,26.13
2022-11-04T19:58:38.037Z,29.75
2022-11-04T20:00:12.434Z,31.67
2022-11-04T20:01:44.729Z,24.23
2022-11-04T20:03:17.073Z,26.95
2022-11-04T20:04:50.422Z,22.80
2022-11-04T20:07:55.368Z,23.67
2022-11-04T20:09:27.465Z,24.88
2022-11-04T20:11:03.602Z,23.67
2022-11-04T20:12:54.973Z,25.20
2022-11-04T20:14:28.455Z,25.58
2022-11-04T20:17:33.787Z,23.80
2022-11-04T20:19:05.816Z,20.73
2022-11-04T20:20:37.883Z,19.85
2022-11-04T20:22:10.269Z,22.35
2022-11-04T20:23:42.566Z,23.98
2022-11-04T20:25:14.762Z,28.80
2022-11-04T20:26:47.842Z,24.30
2022-11-04T20:28:19.889Z,24.27
2022-11-04T20:29:51.951Z,24.00
2022-11-04T20:31:26.168Z,24.77
2022-11-04T20:32:58.304Z,25.80
2022-11-04T20:34:32.924Z,22.80
2022-11-04T20:36:06.555Z,23.38
2022-11-04T20:39:15.219Z,25.67
2022-11-04T20:40:48.659Z,24.42
2022-11-04T20:43:55.441Z,20.17
2022-11-04T20:45:27.489Z,22.88
2022-11-04T20:47:00.125Z,27.27
2022-11-04T20:48:32.356Z,22.90
2022-11-04T20:50:04.782Z,21.73
2022-11-04T20:51:39.515Z,25.88
2022-11-04T20:53:11.898Z,20.77
2022-11-04T20:54:43.868Z,23.10
2022-11-04T20:56:18.172Z,27.25
2022-11-04T20:57:50.171Z,27.80
2022-11-04T20:59:22.256Z,25.33
2022-11-04T21:00:54.557Z,23.50
2022-11-04T21:02:27.268Z,22.63
2022-11-04T21:04:01.497Z,24.52
2022-11-04T21:05:35.212Z,23.05
2022-11-04T21:07:07.792Z,26.23
2022-11-04T21:08:40.446Z,22.30
2022-11-04T21:10:12.518Z,22.80
2022-11-04T21:11:44.824Z,24.27
2022-11-04T21:13:16.852Z,20.33
2022-11-04T21:14:49.090Z,24.40
2022-11-04T21:16:21.673Z,26.25
2022-11-04T21:17:53.711Z,25.00
2022-11-04T21:19:26.102Z,20.23
2022-11-04T21:20:58.403Z,21.00
2022-11-04T21:22:30.548Z,21.13
2022-11-04T21:24:05.617Z,23.15
2022-11-04T21:25:45.149Z,24.52
2022-11-04T21:27:17.285Z,24.48
2022-11-04T21:28:54.377Z,25.15
2022-11-04T21:30:31.939Z,24.92
2022-11-04T21:32:05.389Z,24.35
2022-11-04T21:33:38.515Z,22.60
2022-11-04T21:35:10.704Z,28.77
2022-11-04T21:36:43.367Z,24.67
2022-11-04T21:38:16.938Z,25.83
2022-11-04T21:41:24.704Z,25.05
2022-11-04T21:42:58.265Z,24.80
2022-11-04T21:44:30.309Z,23.33
2022-11-04T21:46:14.085Z,25.90
2022-11-04T21:47:46.105Z,23.05
2022-11-04T21:49:18.398Z,25.15
2022-11-04T21:50:50.502Z,26.08
2022-11-04T21:52:22.557Z,25.98
2022-11-04T21:53:54.761Z,24.25
2022-11-04T21:55:26.848Z,24.45
2022-11-04T21:58:30.881Z,21.48
2022-11-04T22:00:07.807Z,24.10
2022-11-04T22:01:39.863Z,24.30
2022-11-04T22:03:12.364Z,20.90
2022-11-04T22:04:44.689Z,22.73
2022-11-04T22:06:16.727Z,24.33
2022-11-04T22:08:07.625Z,23.17
2022-11-04T22:09:39.706Z,23.92
2022-11-04T22:11:14.480Z,24.48
2022-11-04T22:12:51.111Z,24.50
2022-11-04T22:14:23.481Z,22.50
2022-11-04T22:15:58.488Z,22.80
2022-11-04T22:17:30.504Z,24.63
2022-11-04T22:19:04.952Z,23.73
2022-11-04T22:20:37.113Z,22.77
2022-11-04T22:22:09.230Z,22.35
2022-11-04T22:23:42.025Z,20.77
2022-11-04T22:26:59.730Z,20.00
2022-11-04T22:28:34.941Z,24.90
2022-11-04T22:30:07.805Z,22.90
2022-11-04T22:31:42.124Z,24.25
2022-11-04T22:33:14.113Z,21.08
2022-11-04T22:34:46.170Z,21.90
2022-11-04T22:36:18.815Z,23.15
2022-11-04T22:37:50.828Z,25.17